Mannington, West Virginia
Current Conditions -  °F | °C
As of 4:53 AM on Saturday 22 Nov 2014 (Local Time) from KCKB Reporting Station
Clear Clear  
Wind Chill: 17°   Ceiling: Unl
Heat Index: 17°   Visibility: 10mi
Dew Point: 11°   Wind: 0mph
Humidity: 77%   Direction: NA
Pressure: 30.38"   Gusts: NA
Location:  39.53°N, 80.34°W
Report Text: KCKB 220953Z AUTO 00000KT 10SM CLR M08/M12 A3038 RMK AO2 SLP300 T10831117
Loading
Personal Weather Stations






























Interactive Weather Map New forecast layout! Learn more

10-Day Weather Forecast

Advertisements
Track Severe Weather on mobile